KELO

Details ICAO KELO (LYU)
Name ELY MUNI
Region United States
Timezone America/Chicago (UTC-6.0)
Plans Departing 2
Arriving 3
Stats Elevation 1,455 ft / 443 m (AMSL)
Location 47.824553° -91.830724°
Runways 1
Magnetic Variation 1.402° W
Sunrise 2017-12-16 13:52:05 UTC / 2017-12-16 07:52:05 Local
Sunset 2017-12-16 22:16:50 UTC / 2017-12-16 16:16:50 Local
Advertisement - Login to hide

Runways

ID Width Length Bearing (true) Bearing (mag) Surface Threshold Offset Overrun Length
12 100 ft / 30 m 5,588 ft / 1,703 m 119.80° 121.20° Asphalt 0 ft / 0 m 0 ft / 0 m
30 100 ft / 30 m 5,588 ft / 1,703 m 299.81° 301.21° Asphalt 0 ft / 0 m 0 ft / 0 m

Map

Weather


0- 5 10 15 20 25 30 35+ Temperature / ° C

Clouds and Precipitation
Forecast for 2017-12-16 18:00 UTC. Updated 14 minutes ago

Ground ~20,000 ft ~40,000 ft Winds

METAR

KELO 161335Z AUTO 05003KT 10SM OVC009 M17/M18 A2985 RMK AO2

TAF

Not found

Frequencies

Recorded 132.02 MHz AWOS 3
Unicom 122.80 MHz CTAF/UNICOM
Warning: Do not use this data for real-world aviation or navigation. No guarantee of current accuracy is given.